sensor_id;sensor_type;location;lat;lon;timestamp;temperature;humidity
23783;DHT22;12071;50.850;4.446;2023-06-01T00:00:33;17.10;1.00
23783;DHT22;12071;50.850;4.446;2023-06-01T00:02:59;17.00;1.00
23783;DHT22;12071;50.850;4.446;2023-06-01T00:05:25;16.80;16.20
23783;DHT22;12071;50.850;4.446;2023-06-01T00:07:51;16.80;14.70
23783;DHT22;12071;50.850;4.446;2023-06-01T00:10:17;16.80;13.20
23783;DHT22;12071;50.850;4.446;2023-06-01T00:12:42;16.80;13.80
23783;DHT22;12071;50.850;4.446;2023-06-01T00:15:09;16.90;1.00
23783;DHT22;12071;50.850;4.446;2023-06-01T00:17:34;16.60;32.30
23783;DHT22;12071;50.850;4.446;2023-06-01T00:20:00;16.70;28.20
23783;DHT22;12071;50.850;4.446;2023-06-01T00:22:27;16.60;31.70
23783;DHT22;12071;50.850;4.446;2023-06-01T00:24:54;16.50;44.40
23783;DHT22;12071;50.850;4.446;2023-06-01T00:27:20;16.40;74.00
23783;DHT22;12071;50.850;4.446;2023-06-01T00:29:46;16.30;90.80
23783;DHT22;12071;50.850;4.446;2023-06-01T00:32:11;16.30;99.90
23783;DHT22;12071;50.850;4.446;2023-06-01T00:34:37;16.30;95.70
23783;DHT22;12071;50.850;4.446;2023-06-01T00:37:03;16.40;88.20
23783;DHT22;12071;50.850;4.446;2023-06-01T00:39:28;16.50;70.20
23783;DHT22;12071;50.850;4.446;2023-06-01T00:41:54;16.30;65.60
23783;DHT22;12071;50.850;4.446;2023-06-01T00:44:19;16.20;92.60
23783;DHT22;12071;50.850;4.446;2023-06-01T00:46:45;16.20;96.50
23783;DHT22;12071;50.850;4.446;2023-06-01T00:49:11;16.10;99.90
23783;DHT22;12071;50.850;4.446;2023-06-01T00:51:37;16.20;99.90
23783;DHT22;12071;50.850;4.446;2023-06-01T00:54:02;16.10;99.90
23783;DHT22;12071;50.850;4.446;2023-06-01T00:56:28;16.20;99.90
23783;DHT22;12071;50.850;4.446;2023-06-01T00:58:54;16.30;69.80
23783;DHT22;12071;50.850;4.446;2023-06-01T01:01:20;16.40;56.60
23783;DHT22;12071;50.850;4.446;2023-06-01T01:03:49;16.20;25.40
23783;DHT22;12071;50.850;4.446;2023-06-01T01:06:27;16.10;90.20
23783;DHT22;12071;50.850;4.446;2023-06-01T01:11:34;15.90;99.90
23783;DHT22;12071;50.850;4.446;2023-06-01T01:14:11;15.70;99.90
23783;DHT22;12071;50.850;4.446;2023-06-01T01:16:45;15.60;99.90
23783;DHT22;12071;50.850;4.446;2023-06-01T01:19:39;15.60;99.90
23783;DHT22;12071;50.850;4.446;2023-06-01T01:22:20;15.40;99.90
23783;DHT22;12071;50.850;4.446;2023-06-01T01:25:04;15.30;99.90
23783;DHT22;12071;50.850;4.446;2023-06-01T01:30:06;15.20;99.90
23783;DHT22;12071;50.850;4.446;2023-06-01T01:32:34;15.30;99.90
23783;DHT22;12071;50.850;4.446;2023-06-01T01:35:02;15.20;99.90
23783;DHT22;12071;50.850;4.446;2023-06-01T01:37:28;15.10;99.90
23783;DHT22;12071;50.850;4.446;2023-06-01T01:39:53;15.00;99.90
23783;DHT22;12071;50.850;4.446;2023-06-01T01:42:19;15.00;99.90
23783;DHT22;12071;50.850;4.446;2023-06-01T01:44:45;15.10;99.90
23783;DHT22;12071;50.850;4.446;2023-06-01T01:47:24;15.30;99.90
23783;DHT22;12071;50.850;4.446;2023-06-01T01:49:58;15.30;99.90
23783;DHT22;12071;50.850;4.446;2023-06-01T01:52:43;15.30;99.90
23783;DHT22;12071;50.850;4.446;2023-06-01T01:55:10;15.20;99.90
23783;DHT22;12071;50.850;4.446;2023-06-01T01:57:37;15.20;99.90
23783;DHT22;12071;50.850;4.446;2023-06-01T02:00:05;15.00;99.90
23783;DHT22;12071;50.850;4.446;2023-06-01T02:02:33;15.20;99.90
23783;DHT22;12071;50.850;4.446;2023-06-01T02:04:59;15.00;99.90
23783;DHT22;12071;50.850;4.446;2023-06-01T02:07:25;14.90;99.90
23783;DHT22;12071;50.850;4.446;2023-06-01T02:09:51;14.80;99.90
23783;DHT22;12071;50.850;4.446;2023-06-01T02:12:16;14.80;99.90
23783;DHT22;12071;50.850;4.446;2023-06-01T02:14:42;15.00;99.90
23783;DHT22;12071;50.850;4.446;2023-06-01T02:17:08;15.00;99.90
23783;DHT22;12071;50.850;4.446;2023-06-01T02:19:34;14.80;99.90
23783;DHT22;12071;50.850;4.446;2023-06-01T02:21:59;14.50;99.90
23783;DHT22;12071;50.850;4.446;2023-06-01T02:24:25;14.40;99.90
23783;DHT22;12071;50.850;4.446;2023-06-01T02:26:51;14.50;99.90
23783;DHT22;12071;50.850;4.446;2023-06-01T02:29:21;14.50;99.90
23783;DHT22;12071;50.850;4.446;2023-06-01T02:31:49;14.30;99.90
23783;DHT22;12071;50.850;4.446;2023-06-01T02:34:16;14.20;99.90
23783;DHT22;12071;50.850;4.446;2023-06-01T02:36:41;14.50;99.90
23783;DHT22;12071;50.850;4.446;2023-06-01T02:39:08;14.60;99.90
23783;DHT22;12071;50.850;4.446;2023-06-01T02:41:35;14.40;99.90
23783;DHT22;12071;50.850;4.446;2023-06-01T02:44:00;14.50;99.90
23783;DHT22;12071;50.850;4.446;2023-06-01T02:46:26;14.60;99.90
23783;DHT22;12071;50.850;4.446;2023-06-01T02:48:52;14.60;99.90
23783;DHT22;12071;50.850;4.446;2023-06-01T02:51:18;14.40;99.90
23783;DHT22;12071;50.850;4.446;2023-06-01T02:53:44;14.10;99.90
23783;DHT22;12071;50.850;4.446;2023-06-01T02:56:12;14.00;99.90
23783;DHT22;12071;50.850;4.446;2023-06-01T02:58:37;14.00;99.90
23783;DHT22;12071;50.850;4.446;2023-06-01T03:01:03;14.10;99.90
23783;DHT22;12071;50.850;4.446;2023-06-01T03:03:29;13.90;99.90
23783;DHT22;12071;50.850;4.446;2023-06-01T03:05:54;14.00;99.90
23783;DHT22;12071;50.850;4.446;2023-06-01T03:08:21;14.10;99.90
23783;DHT22;12071;50.850;4.446;2023-06-01T03:10:47;14.00;99.90
23783;DHT22;12071;50.850;4.446;2023-06-01T03:13:13;14.10;99.90
23783;DHT22;12071;50.850;4.446;2023-06-01T03:15:38;13.90;99.90
23783;DHT22;12071;50.850;4.446;2023-06-01T03:18:04;13.90;99.90
23783;DHT22;12071;50.850;4.446;2023-06-01T03:20:34;13.70;99.90
23783;DHT22;12071;50.850;4.446;2023-06-01T03:23:00;13.70;99.90
23783;DHT22;12071;50.850;4.446;2023-06-01T03:25:26;13.90;99.90
23783;DHT22;12071;50.850;4.446;2023-06-01T03:27:51;13.80;99.90
23783;DHT22;12071;50.850;4.446;2023-06-01T03:30:17;13.50;99.90
23783;DHT22;12071;50.850;4.446;2023-06-01T03:32:44;13.40;99.90
23783;DHT22;12071;50.850;4.446;2023-06-01T03:35:10;13.40;99.90
23783;DHT22;12071;50.850;4.446;2023-06-01T03:37:38;13.50;99.90
23783;DHT22;12071;50.850;4.446;2023-06-01T03:40:04;13.50;99.90
23783;DHT22;12071;50.850;4.446;2023-06-01T03:42:47;13.30;99.90
23783;DHT22;12071;50.850;4.446;2023-06-01T03:45:14;13.40;99.90
23783;DHT22;12071;50.850;4.446;2023-06-01T03:47:41;13.30;99.90
23783;DHT22;12071;50.850;4.446;2023-06-01T03:50:08;13.20;99.90
23783;DHT22;12071;50.850;4.446;2023-06-01T03:52:35;13.30;99.90
23783;DHT22;12071;50.850;4.446;2023-06-01T03:55:03;13.50;99.90
23783;DHT22;12071;50.850;4.446;2023-06-01T03:57:35;13.60;99.90
23783;DHT22;12071;50.850;4.446;2023-06-01T04:00:02;13.50;99.90
23783;DHT22;12071;50.850;4.446;2023-06-01T04:03:01;13.40;99.90
23783;DHT22;12071;50.850;4.446;2023-06-01T04:05:29;13.50;99.90
23783;DHT22;12071;50.850;4.446;2023-06-01T04:07:56;13.60;99.90
23783;DHT22;12071;50.850;4.446;2023-06-01T04:10:22;13.50;99.90
23783;DHT22;12071;50.850;4.446;2023-06-01T04:12:48;13.40;99.90
23783;DHT22;12071;50.850;4.446;2023-06-01T04:15:16;13.40;99.90
23783;DHT22;12071;50.850;4.446;2023-06-01T04:17:43;13.20;99.90
23783;DHT22;12071;50.850;4.446;2023-06-01T04:20:10;13.20;99.90
23783;DHT22;12071;50.850;4.446;2023-06-01T04:22:40;13.60;99.90
23783;DHT22;12071;50.850;4.446;2023-06-01T04:25:10;13.60;99.90
23783;DHT22;12071;50.850;4.446;2023-06-01T04:27:44;13.80;99.90
23783;DHT22;12071;50.850;4.446;2023-06-01T04:30:11;13.80;99.90
23783;DHT22;12071;50.850;4.446;2023-06-01T04:32:37;13.80;99.90
23783;DHT22;12071;50.850;4.446;2023-06-01T04:35:07;13.70;99.90
23783;DHT22;12071;50.850;4.446;2023-06-01T04:37:34;13.80;99.90
23783;DHT22;12071;50.850;4.446;2023-06-01T04:40:03;13.90;99.90
23783;DHT22;12071;50.850;4.446;2023-06-01T04:42:34;14.00;99.90
23783;DHT22;12071;50.850;4.446;2023-06-01T04:45:00;14.10;99.90
23783;DHT22;12071;50.850;4.446;2023-06-01T04:47:32;13.80;99.90
23783;DHT22;12071;50.850;4.446;2023-06-01T04:49:58;13.60;99.90
23783;DHT22;12071;50.850;4.446;2023-06-01T04:52:24;13.60;99.90
23783;DHT22;12071;50.850;4.446;2023-06-01T04:54:50;13.80;99.90
23783;DHT22;12071;50.850;4.446;2023-06-01T04:57:15;13.90;99.90
23783;DHT22;12071;50.850;4.446;2023-06-01T04:59:41;13.90;99.90
23783;DHT22;12071;50.850;4.446;2023-06-01T05:02:07;13.90;99.90
23783;DHT22;12071;50.850;4.446;2023-06-01T05:04:33;14.00;99.90
23783;DHT22;12071;50.850;4.446;2023-06-01T05:06:59;13.90;99.90
23783;DHT22;12071;50.850;4.446;2023-06-01T05:09:25;14.00;99.90
23783;DHT22;12071;50.850;4.446;2023-06-01T05:11:51;14.00;99.90
23783;DHT22;12071;50.850;4.446;2023-06-01T05:14:16;13.90;99.90
23783;DHT22;12071;50.850;4.446;2023-06-01T05:16:42;13.90;99.90
23783;DHT22;12071;50.850;4.446;2023-06-01T05:19:08;14.10;99.90
23783;DHT22;12071;50.850;4.446;2023-06-01T05:21:33;14.10;99.90
23783;DHT22;12071;50.850;4.446;2023-06-01T05:23:59;14.20;99.90
23783;DHT22;12071;50.850;4.446;2023-06-01T05:26:24;14.20;99.90
23783;DHT22;12071;50.850;4.446;2023-06-01T05:28:50;14.20;99.90
23783;DHT22;12071;50.850;4.446;2023-06-01T05:31:16;14.10;99.90
23783;DHT22;12071;50.850;4.446;2023-06-01T05:33:42;14.10;99.90
23783;DHT22;12071;50.850;4.446;2023-06-01T05:36:07;14.20;99.90
23783;DHT22;12071;50.850;4.446;2023-06-01T05:38:33;14.40;99.90
23783;DHT22;12071;50.850;4.446;2023-06-01T05:40:59;14.40;99.90
23783;DHT22;12071;50.850;4.446;2023-06-01T05:43:24;14.60;99.90
23783;DHT22;12071;50.850;4.446;2023-06-01T05:45:50;14.60;99.90
23783;DHT22;12071;50.850;4.446;2023-06-01T05:48:16;14.40;99.90
23783;DHT22;12071;50.850;4.446;2023-06-01T05:50:42;14.30;99.90
23783;DHT22;12071;50.850;4.446;2023-06-01T05:53:08;14.10;99.90
23783;DHT22;12071;50.850;4.446;2023-06-01T05:55:34;14.00;99.90
23783;DHT22;12071;50.850;4.446;2023-06-01T05:58:00;14.20;99.90
23783;DHT22;12071;50.850;4.446;2023-06-01T06:00:25;14.40;99.90
23783;DHT22;12071;50.850;4.446;2023-06-01T06:02:51;14.50;99.90
23783;DHT22;12071;50.850;4.446;2023-06-01T06:05:16;14.60;99.90
23783;DHT22;12071;50.850;4.446;2023-06-01T06:07:42;14.40;99.90
23783;DHT22;12071;50.850;4.446;2023-06-01T06:10:08;14.10;99.90
23783;DHT22;12071;50.850;4.446;2023-06-01T06:12:34;14.20;99.90
23783;DHT22;12071;50.850;4.446;2023-06-01T06:14:59;14.40;99.90
23783;DHT22;12071;50.850;4.446;2023-06-01T06:17:25;14.20;99.90
23783;DHT22;12071;50.850;4.446;2023-06-01T06:19:51;14.20;99.90
23783;DHT22;12071;50.850;4.446;2023-06-01T06:22:16;14.50;99.90
23783;DHT22;12071;50.850;4.446;2023-06-01T06:24:42;14.50;99.90
23783;DHT22;12071;50.850;4.446;2023-06-01T06:27:11;14.40;99.90
23783;DHT22;12071;50.850;4.446;2023-06-01T06:29:36;14.70;99.90
23783;DHT22;12071;50.850;4.446;2023-06-01T06:32:02;15.00;35.90
23783;DHT22;12071;50.850;4.446;2023-06-01T06:34:28;15.00;1.00
23783;DHT22;12071;50.850;4.446;2023-06-01T06:37:06;15.10;17.20
23783;DHT22;12071;50.850;4.446;2023-06-01T06:39:33;15.10;1.00
23783;DHT22;12071;50.850;4.446;2023-06-01T06:41:59;15.00;1.00
23783;DHT22;12071;50.850;4.446;2023-06-01T06:44:26;15.10;1.00
23783;DHT22;12071;50.850;4.446;2023-06-01T06:46:52;14.80;1.00
23783;DHT22;12071;50.850;4.446;2023-06-01T06:49:17;14.80;1.00
23783;DHT22;12071;50.850;4.446;2023-06-01T06:51:45;14.80;1.00
23783;DHT22;12071;50.850;4.446;2023-06-01T06:54:11;14.90;1.00
23783;DHT22;12071;50.850;4.446;2023-06-01T06:56:37;14.70;1.00
23783;DHT22;12071;50.850;4.446;2023-06-01T06:59:03;14.70;1.00
23783;DHT22;12071;50.850;4.446;2023-06-01T07:01:28;14.80;1.00
23783;DHT22;12071;50.850;4.446;2023-06-01T07:03:54;15.00;1.00
23783;DHT22;12071;50.850;4.446;2023-06-01T07:06:21;14.80;1.00
23783;DHT22;12071;50.850;4.446;2023-06-01T07:08:48;14.80;1.00
23783;DHT22;12071;50.850;4.446;2023-06-01T07:11:15;14.60;1.00
23783;DHT22;12071;50.850;4.446;2023-06-01T07:13:41;14.80;1.00
23783;DHT22;12071;50.850;4.446;2023-06-01T07:16:06;15.10;1.00
23783;DHT22;12071;50.850;4.446;2023-06-01T07:18:32;15.00;1.00
23783;DHT22;12071;50.850;4.446;2023-06-01T07:20:57;15.20;1.00
23783;DHT22;12071;50.850;4.446;2023-06-01T07:23:23;15.10;1.00
23783;DHT22;12071;50.850;4.446;2023-06-01T07:25:49;15.20;1.00
23783;DHT22;12071;50.850;4.446;2023-06-01T07:28:15;15.50;1.00
23783;DHT22;12071;50.850;4.446;2023-06-01T07:30:41;15.20;1.00
23783;DHT22;12071;50.850;4.446;2023-06-01T07:33:07;15.40;1.00
23783;DHT22;12071;50.850;4.446;2023-06-01T07:35:33;15.60;1.00
23783;DHT22;12071;50.850;4.446;2023-06-01T07:37:59;15.70;99.90
23783;DHT22;12071;50.850;4.446;2023-06-01T07:40:25;15.20;1.00
23783;DHT22;12071;50.850;4.446;2023-06-01T07:42:51;15.50;1.00
23783;DHT22;12071;50.850;4.446;2023-06-01T07:45:17;15.90;99.90
23783;DHT22;12071;50.850;4.446;2023-06-01T07:47:42;16.00;99.90
23783;DHT22;12071;50.850;4.446;2023-06-01T07:50:08;15.60;99.90
23783;DHT22;12071;50.850;4.446;2023-06-01T07:52:34;15.80;99.90
23783;DHT22;12071;50.850;4.446;2023-06-01T07:55:00;15.30;99.90
23783;DHT22;12071;50.850;4.446;2023-06-01T07:57:26;15.30;1.00
23783;DHT22;12071;50.850;4.446;2023-06-01T07:59:52;15.40;1.00
23783;DHT22;12071;50.850;4.446;2023-06-01T08:02:18;15.60;1.00
23783;DHT22;12071;50.850;4.446;2023-06-01T08:04:45;15.90;1.00
23783;DHT22;12071;50.850;4.446;2023-06-01T08:07:12;16.40;99.90
23783;DHT22;12071;50.850;4.446;2023-06-01T08:09:39;16.80;99.90
23783;DHT22;12071;50.850;4.446;2023-06-01T08:12:06;16.50;1.00
23783;DHT22;12071;50.850;4.446;2023-06-01T08:14:32;16.00;99.90
23783;DHT22;12071;50.850;4.446;2023-06-01T08:17:00;16.10;99.90
23783;DHT22;12071;50.850;4.446;2023-06-01T08:19:27;16.00;99.90
23783;DHT22;12071;50.850;4.446;2023-06-01T08:21:53;16.20;99.90
23783;DHT22;12071;50.850;4.446;2023-06-01T08:24:18;16.00;99.90
23783;DHT22;12071;50.850;4.446;2023-06-01T08:26:48;15.80;99.90
23783;DHT22;12071;50.850;4.446;2023-06-01T08:29:13;16.00;99.90
23783;DHT22;12071;50.850;4.446;2023-06-01T08:31:39;15.70;99.90
23783;DHT22;12071;50.850;4.446;2023-06-01T08:34:05;15.50;99.90
23783;DHT22;12071;50.850;4.446;2023-06-01T08:36:30;15.50;1.00
23783;DHT22;12071;50.850;4.446;2023-06-01T08:38:56;16.00;1.00
23783;DHT22;12071;50.850;4.446;2023-06-01T08:44:03;16.40;99.90
23783;DHT22;12071;50.850;4.446;2023-06-01T08:46:31;16.40;16.60
23783;DHT22;12071;50.850;4.446;2023-06-01T08:48:58;16.30;99.90
23783;DHT22;12071;50.850;4.446;2023-06-01T08:51:24;16.10;99.90
23783;DHT22;12071;50.850;4.446;2023-06-01T08:53:51;16.00;99.90
23783;DHT22;12071;50.850;4.446;2023-06-01T08:56:17;15.60;99.90
23783;DHT22;12071;50.850;4.446;2023-06-01T08:58:43;15.70;1.00
23783;DHT22;12071;50.850;4.446;2023-06-01T09:01:13;15.80;1.00
23783;DHT22;12071;50.850;4.446;2023-06-01T09:03:41;16.00;99.90
23783;DHT22;12071;50.850;4.446;2023-06-01T09:06:06;16.10;99.90
23783;DHT22;12071;50.850;4.446;2023-06-01T09:08:32;16.30;99.90
23783;DHT22;12071;50.850;4.446;2023-06-01T09:10:58;16.30;99.90
23783;DHT22;12071;50.850;4.446;2023-06-01T09:13:37;16.60;99.90
23783;DHT22;12071;50.850;4.446;2023-06-01T09:16:03;16.80;99.80
23783;DHT22;12071;50.850;4.446;2023-06-01T09:18:29;16.50;4.10
23783;DHT22;12071;50.850;4.446;2023-06-01T09:21:13;16.60;99.90
23783;DHT22;12071;50.850;4.446;2023-06-01T09:23:39;16.60;99.90
23783;DHT22;12071;50.850;4.446;2023-06-01T09:26:06;16.90;77.60
23783;DHT22;12071;50.850;4.446;2023-06-01T09:29:04;16.80;1.00
23783;DHT22;12071;50.850;4.446;2023-06-01T09:31:42;16.80;1.00
23783;DHT22;12071;50.850;4.446;2023-06-01T09:34:14;16.90;99.90
23783;DHT22;12071;50.850;4.446;2023-06-01T09:36:47;17.20;99.90
23783;DHT22;12071;50.850;4.446;2023-06-01T09:39:14;17.30;99.90
23783;DHT22;12071;50.850;4.446;2023-06-01T09:41:45;17.40;1.00
23783;DHT22;12071;50.850;4.446;2023-06-01T09:44:11;17.30;99.90
23783;DHT22;12071;50.850;4.446;2023-06-01T09:46:51;17.30;99.90
23783;DHT22;12071;50.850;4.446;2023-06-01T09:49:21;17.50;1.00
23783;DHT22;12071;50.850;4.446;2023-06-01T09:51:47;17.70;99.90
23783;DHT22;12071;50.850;4.446;2023-06-01T09:54:24;18.10;99.90
23783;DHT22;12071;50.850;4.446;2023-06-01T09:56:51;18.30;99.90
23783;DHT22;12071;50.850;4.446;2023-06-01T09:59:17;17.90;1.00
23783;DHT22;12071;50.850;4.446;2023-06-01T10:01:44;17.90;51.50
23783;DHT22;12071;50.850;4.446;2023-06-01T10:04:14;18.00;99.90
23783;DHT22;12071;50.850;4.446;2023-06-01T10:06:42;18.00;99.90
23783;DHT22;12071;50.850;4.446;2023-06-01T10:09:11;18.10;99.90
23783;DHT22;12071;50.850;4.446;2023-06-01T10:11:43;18.40;1.00
23783;DHT22;12071;50.850;4.446;2023-06-01T10:14:10;18.20;99.90
23783;DHT22;12071;50.850;4.446;2023-06-01T10:16:35;18.60;99.90
23783;DHT22;12071;50.850;4.446;2023-06-01T10:19:01;18.70;99.90
23783;DHT22;12071;50.850;4.446;2023-06-01T10:21:27;18.90;1.00
23783;DHT22;12071;50.850;4.446;2023-06-01T10:24:00;19.10;1.00
23783;DHT22;12071;50.850;4.446;2023-06-01T10:26:27;19.20;99.90
23783;DHT22;12071;50.850;4.446;2023-06-01T10:28:55;19.10;1.00
23783;DHT22;12071;50.850;4.446;2023-06-01T10:31:40;19.60;99.90
23783;DHT22;12071;50.850;4.446;2023-06-01T10:34:08;19.80;39.30
23783;DHT22;12071;50.850;4.446;2023-06-01T10:39:25;19.60;1.00
23783;DHT22;12071;50.850;4.446;2023-06-01T10:41:52;19.70;1.00
23783;DHT22;12071;50.850;4.446;2023-06-01T10:52:35;20.10;99.90
23783;DHT22;12071;50.850;4.446;2023-06-01T10:57:36;20.20;1.00
23783;DHT22;12071;50.850;4.446;2023-06-01T11:00:18;20.00;77.70
23783;DHT22;12071;50.850;4.446;2023-06-01T11:02:48;20.10;99.90
23783;DHT22;12071;50.850;4.446;2023-06-01T11:05:40;20.50;99.90
23783;DHT22;12071;50.850;4.446;2023-06-01T11:21:22;21.10;2.80
23783;DHT22;12071;50.850;4.446;2023-06-01T11:23:49;21.30;1.00
23783;DHT22;12071;50.850;4.446;2023-06-01T11:26:17;21.40;1.00
23783;DHT22;12071;50.850;4.446;2023-06-01T11:28:43;21.90;1.00
23783;DHT22;12071;50.850;4.446;2023-06-01T11:31:10;22.00;1.00
23783;DHT22;12071;50.850;4.446;2023-06-01T11:33:39;21.80;1.00
23783;DHT22;12071;50.850;4.446;2023-06-01T11:36:07;21.70;1.00
23783;DHT22;12071;50.850;4.446;2023-06-01T11:38:34;21.70;1.00
23783;DHT22;12071;50.850;4.446;2023-06-01T11:41:03;22.00;1.00
23783;DHT22;12071;50.850;4.446;2023-06-01T11:43:30;22.40;1.00
23783;DHT22;12071;50.850;4.446;2023-06-01T11:46:00;22.00;99.90
23783;DHT22;12071;50.850;4.446;2023-06-01T11:48:26;21.70;1.00
23783;DHT22;12071;50.850;4.446;2023-06-01T11:50:52;21.80;1.00
23783;DHT22;12071;50.850;4.446;2023-06-01T11:53:18;21.90;99.90
23783;DHT22;12071;50.850;4.446;2023-06-01T11:55:51;21.90;99.90
23783;DHT22;12071;50.850;4.446;2023-06-01T11:58:28;22.30;99.90
23783;DHT22;12071;50.850;4.446;2023-06-01T12:00:55;22.40;99.90
23783;DHT22;12071;50.850;4.446;2023-06-01T12:03:21;22.10;99.90
23783;DHT22;12071;50.850;4.446;2023-06-01T12:05:47;22.10;99.90
23783;DHT22;12071;50.850;4.446;2023-06-01T12:08:24;22.20;99.90
23783;DHT22;12071;50.850;4.446;2023-06-01T12:10:51;22.30;99.90
23783;DHT22;12071;50.850;4.446;2023-06-01T12:13:19;22.30;99.90
23783;DHT22;12071;50.850;4.446;2023-06-01T12:15:45;22.00;99.90
23783;DHT22;12071;50.850;4.446;2023-06-01T12:18:11;22.40;99.90
23783;DHT22;12071;50.850;4.446;2023-06-01T12:20:43;22.50;99.90
23783;DHT22;12071;50.850;4.446;2023-06-01T12:28:13;23.00;99.90
23783;DHT22;12071;50.850;4.446;2023-06-01T12:30:38;22.80;99.90
23783;DHT22;12071;50.850;4.446;2023-06-01T12:33:04;22.90;99.90
23783;DHT22;12071;50.850;4.446;2023-06-01T12:35:31;23.10;99.90
23783;DHT22;12071;50.850;4.446;2023-06-01T12:38:04;22.90;99.90
23783;DHT22;12071;50.850;4.446;2023-06-01T12:40:32;23.00;99.90
23783;DHT22;12071;50.850;4.446;2023-06-01T12:43:00;22.80;99.90
23783;DHT22;12071;50.850;4.446;2023-06-01T12:45:34;22.90;99.90
23783;DHT22;12071;50.850;4.446;2023-06-01T12:48:01;23.30;99.90
23783;DHT22;12071;50.850;4.446;2023-06-01T12:50:27;23.40;99.90
23783;DHT22;12071;50.850;4.446;2023-06-01T12:52:52;23.90;99.90
23783;DHT22;12071;50.850;4.446;2023-06-01T12:55:18;24.20;99.90
23783;DHT22;12071;50.850;4.446;2023-06-01T12:57:52;24.00;99.90
23783;DHT22;12071;50.850;4.446;2023-06-01T13:00:18;23.80;82.10
23783;DHT22;12071;50.850;4.446;2023-06-01T13:02:45;23.90;99.90
23783;DHT22;12071;50.850;4.446;2023-06-01T13:05:14;24.20;88.50
23783;DHT22;12071;50.850;4.446;2023-06-01T13:07:41;24.20;71.10
23783;DHT22;12071;50.850;4.446;2023-06-01T13:10:07;24.30;42.30
23783;DHT22;12071;50.850;4.446;2023-06-01T13:12:34;24.50;42.20
23783;DHT22;12071;50.850;4.446;2023-06-01T13:15:00;24.60;12.70
23783;DHT22;12071;50.850;4.446;2023-06-01T13:17:26;24.70;41.90
23783;DHT22;12071;50.850;4.446;2023-06-01T13:19:52;24.90;11.20
23783;DHT22;12071;50.850;4.446;2023-06-01T13:22:18;25.50;1.00
23783;DHT22;12071;50.850;4.446;2023-06-01T13:24:44;26.20;1.00
23783;DHT22;12071;50.850;4.446;2023-06-01T13:27:10;27.10;1.00
23783;DHT22;12071;50.850;4.446;2023-06-01T13:29:35;28.40;1.00
23783;DHT22;12071;50.850;4.446;2023-06-01T13:32:01;28.50;1.00
23783;DHT22;12071;50.850;4.446;2023-06-01T13:34:26;29.10;1.00
23783;DHT22;12071;50.850;4.446;2023-06-01T13:36:52;28.80;1.00
23783;DHT22;12071;50.850;4.446;2023-06-01T13:39:18;29.10;1.00
23783;DHT22;12071;50.850;4.446;2023-06-01T13:41:43;30.30;1.00
23783;DHT22;12071;50.850;4.446;2023-06-01T13:44:09;31.10;99.90
23783;DHT22;12071;50.850;4.446;2023-06-01T13:46:34;30.80;99.90
23783;DHT22;12071;50.850;4.446;2023-06-01T13:49:00;31.30;99.90
23783;DHT22;12071;50.850;4.446;2023-06-01T13:51:26;31.80;99.90
23783;DHT22;12071;50.850;4.446;2023-06-01T13:53:52;32.10;99.90
23783;DHT22;12071;50.850;4.446;2023-06-01T13:56:17;32.40;99.90
23783;DHT22;12071;50.850;4.446;2023-06-01T13:58:43;33.40;99.90
23783;DHT22;12071;50.850;4.446;2023-06-01T14:01:08;34.10;99.90
23783;DHT22;12071;50.850;4.446;2023-06-01T14:03:34;34.40;99.90
23783;DHT22;12071;50.850;4.446;2023-06-01T14:06:00;34.80;99.90
23783;DHT22;12071;50.850;4.446;2023-06-01T14:08:26;35.20;99.90
23783;DHT22;12071;50.850;4.446;2023-06-01T14:10:51;34.60;99.90
23783;DHT22;12071;50.850;4.446;2023-06-01T14:13:17;34.50;99.90
23783;DHT22;12071;50.850;4.446;2023-06-01T14:15:42;33.60;99.90
23783;DHT22;12071;50.850;4.446;2023-06-01T14:18:08;33.20;99.90
23783;DHT22;12071;50.850;4.446;2023-06-01T14:20:34;33.10;99.90
23783;DHT22;12071;50.850;4.446;2023-06-01T14:23:00;32.80;99.90
23783;DHT22;12071;50.850;4.446;2023-06-01T14:25:26;33.40;99.90
23783;DHT22;12071;50.850;4.446;2023-06-01T14:27:51;34.10;99.90
23783;DHT22;12071;50.850;4.446;2023-06-01T14:30:17;34.50;99.90
23783;DHT22;12071;50.850;4.446;2023-06-01T14:32:43;34.00;99.90
23783;DHT22;12071;50.850;4.446;2023-06-01T14:35:08;33.90;99.90
23783;DHT22;12071;50.850;4.446;2023-06-01T14:37:34;33.70;99.90
23783;DHT22;12071;50.850;4.446;2023-06-01T14:40:00;33.50;99.90
23783;DHT22;12071;50.850;4.446;2023-06-01T14:42:25;34.00;99.90
23783;DHT22;12071;50.850;4.446;2023-06-01T14:44:51;35.10;99.90
23783;DHT22;12071;50.850;4.446;2023-06-01T14:47:16;35.20;99.90
23783;DHT22;12071;50.850;4.446;2023-06-01T14:49:42;35.30;99.90
23783;DHT22;12071;50.850;4.446;2023-06-01T14:52:07;35.60;99.90
23783;DHT22;12071;50.850;4.446;2023-06-01T14:54:36;36.10;99.90
23783;DHT22;12071;50.850;4.446;2023-06-01T14:57:01;36.40;99.90
23783;DHT22;12071;50.850;4.446;2023-06-01T14:59:27;35.00;99.90
23783;DHT22;12071;50.850;4.446;2023-06-01T15:01:52;35.10;99.90
23783;DHT22;12071;50.850;4.446;2023-06-01T15:04:18;35.60;99.90
23783;DHT22;12071;50.850;4.446;2023-06-01T15:06:44;36.30;99.90
23783;DHT22;12071;50.850;4.446;2023-06-01T15:09:09;36.50;99.90
23783;DHT22;12071;50.850;4.446;2023-06-01T15:11:35;36.30;99.90
23783;DHT22;12071;50.850;4.446;2023-06-01T15:14:01;36.70;99.90
23783;DHT22;12071;50.850;4.446;2023-06-01T15:16:27;35.80;99.90
23783;DHT22;12071;50.850;4.446;2023-06-01T15:18:53;35.50;99.90
23783;DHT22;12071;50.850;4.446;2023-06-01T15:21:18;35.80;99.90
23783;DHT22;12071;50.850;4.446;2023-06-01T15:23:45;35.70;99.90
23783;DHT22;12071;50.850;4.446;2023-06-01T15:26:10;35.30;99.90
23783;DHT22;12071;50.850;4.446;2023-06-01T15:28:36;35.00;99.90
23783;DHT22;12071;50.850;4.446;2023-06-01T15:31:01;35.60;99.90
23783;DHT22;12071;50.850;4.446;2023-06-01T15:33:27;35.10;99.90
23783;DHT22;12071;50.850;4.446;2023-06-01T15:35:53;35.40;99.90
23783;DHT22;12071;50.850;4.446;2023-06-01T15:38:18;34.90;99.90
23783;DHT22;12071;50.850;4.446;2023-06-01T15:40:46;34.40;99.90
23783;DHT22;12071;50.850;4.446;2023-06-01T15:43:12;34.90;99.90
23783;DHT22;12071;50.850;4.446;2023-06-01T15:45:37;35.10;99.90
23783;DHT22;12071;50.850;4.446;2023-06-01T15:48:03;34.70;99.90
23783;DHT22;12071;50.850;4.446;2023-06-01T15:50:28;34.70;99.90
23783;DHT22;12071;50.850;4.446;2023-06-01T15:52:54;34.40;99.90
23783;DHT22;12071;50.850;4.446;2023-06-01T15:55:20;34.40;99.90
23783;DHT22;12071;50.850;4.446;2023-06-01T15:57:45;34.10;99.90
23783;DHT22;12071;50.850;4.446;2023-06-01T16:00:11;34.50;99.90
23783;DHT22;12071;50.850;4.446;2023-06-01T16:02:38;34.40;99.90
23783;DHT22;12071;50.850;4.446;2023-06-01T16:05:04;34.20;99.90
23783;DHT22;12071;50.850;4.446;2023-06-01T16:07:30;34.80;99.90
23783;DHT22;12071;50.850;4.446;2023-06-01T16:09:56;33.80;99.90
23783;DHT22;12071;50.850;4.446;2023-06-01T16:12:21;33.70;99.90
23783;DHT22;12071;50.850;4.446;2023-06-01T16:14:47;34.00;99.90